createdAt,value
2019-03-16T00:00:47.314Z,68.10
2019-03-16T00:03:16.991Z,68.60
2019-03-16T00:05:46.756Z,68.40
2019-03-16T00:08:16.805Z,68.60
2019-03-16T00:10:46.519Z,68.40
2019-03-16T00:13:16.576Z,68.30
2019-03-16T00:15:46.752Z,68.40
2019-03-16T00:18:16.429Z,68.30
2019-03-16T00:20:46.132Z,68.40
2019-03-16T00:23:15.810Z,68.30
2019-03-16T00:25:45.571Z,68.30
2019-03-16T00:28:15.356Z,68.30
2019-03-16T00:30:45.064Z,68.20
2019-03-16T00:33:14.731Z,68.30
2019-03-16T00:35:44.433Z,68.20
2019-03-16T00:38:14.305Z,68.40
2019-03-16T00:40:44.072Z,68.30
2019-03-16T00:43:13.751Z,68.30
2019-03-16T00:45:43.510Z,68.30
2019-03-16T00:48:13.180Z,68.40
2019-03-16T00:50:42.899Z,68.30
2019-03-16T00:53:12.596Z,68.20
2019-03-16T00:55:42.355Z,68.20
2019-03-16T00:58:12.021Z,68.20
2019-03-16T01:00:41.791Z,68.20
2019-03-16T01:03:11.484Z,68.10
2019-03-16T01:05:41.185Z,68.10
2019-03-16T01:08:10.920Z,68.20
2019-03-16T01:10:40.696Z,68.10
2019-03-16T01:13:10.375Z,68.30
2019-03-16T01:15:40.054Z,68.30
2019-03-16T01:18:09.750Z,68.10
2019-03-16T01:20:39.456Z,68.10
2019-03-16T01:23:09.172Z,68.30
2019-03-16T01:25:38.986Z,68.20
2019-03-16T01:28:08.796Z,68.40
2019-03-16T01:30:38.473Z,68.50
2019-03-16T01:33:08.271Z,68.40
2019-03-16T01:35:37.926Z,68.40
2019-03-16T01:38:07.679Z,68.40
2019-03-16T01:40:37.356Z,68.60
2019-03-16T01:43:07.033Z,68.40
2019-03-16T01:45:36.791Z,69.20
2019-03-16T01:48:06.643Z,68.50
2019-03-16T01:50:36.408Z,68.40
2019-03-16T01:53:06.284Z,69.20
2019-03-16T01:55:35.969Z,68.40
2019-03-16T01:58:05.839Z,68.40
2019-03-16T02:00:35.590Z,68.50
2019-03-16T02:03:08.960Z,68.30
2019-03-16T02:05:38.619Z,68.30
2019-03-16T02:08:08.408Z,68.40
2019-03-16T02:10:38.108Z,68.30
2019-03-16T02:13:08.034Z,68.70
2019-03-16T02:15:37.860Z,68.40
2019-03-16T02:18:07.684Z,68.40
2019-03-16T02:20:37.385Z,68.40
2019-03-16T02:23:07.333Z,68.30
2019-03-16T02:25:37.021Z,68.40
2019-03-16T02:28:06.887Z,68.30
2019-03-16T02:30:38.208Z,68.30
2019-03-16T02:33:12.989Z,68.80
2019-03-16T02:35:39.793Z,68.80
2019-03-16T02:38:09.520Z,68.80
2019-03-16T02:40:39.217Z,68.90
2019-03-16T02:43:09.001Z,68.80
2019-03-16T02:45:38.761Z,68.90
2019-03-16T02:48:09.374Z,69.00
2019-03-16T02:50:39.094Z,69.10
2019-03-16T02:53:08.899Z,69.20
2019-03-16T02:55:38.631Z,69.10
2019-03-16T02:58:08.464Z,69.00
2019-03-16T03:00:38.229Z,69.00
2019-03-16T03:03:08.011Z,69.10
2019-03-16T03:05:37.721Z,69.20
2019-03-16T03:08:07.429Z,69.40
2019-03-16T03:10:37.144Z,69.30
2019-03-16T03:13:06.994Z,69.40
2019-03-16T03:15:36.692Z,69.50
2019-03-16T03:18:06.573Z,69.50
2019-03-16T03:20:36.340Z,69.30
2019-03-16T03:23:06.133Z,69.50
2019-03-16T03:25:35.837Z,69.40
2019-03-16T03:28:05.650Z,69.40
2019-03-16T03:30:35.329Z,69.50
2019-03-16T03:33:05.162Z,69.50
2019-03-16T03:35:34.961Z,69.40
2019-03-16T03:38:04.657Z,70.20
2019-03-16T03:40:34.818Z,69.60
2019-03-16T03:43:04.601Z,69.40
2019-03-16T03:45:34.323Z,69.30
2019-03-16T03:48:04.073Z,69.30
2019-03-16T03:50:33.851Z,69.20
2019-03-16T03:53:03.569Z,69.20
2019-03-16T03:55:35.002Z,69.20
2019-03-16T03:58:04.905Z,69.20
2019-03-16T04:00:34.809Z,69.20
2019-03-16T04:03:04.652Z,69.40
2019-03-16T04:05:34.439Z,69.30
2019-03-16T04:08:04.305Z,69.30
2019-03-16T04:10:34.001Z,69.30
2019-03-16T04:13:04.096Z,69.50
2019-03-16T04:15:33.805Z,69.40
2019-03-16T04:18:03.581Z,69.50
2019-03-16T04:20:33.303Z,69.60
2019-03-16T04:23:03.068Z,69.60
2019-03-16T04:25:33.672Z,69.80
2019-03-16T04:28:03.452Z,69.90
2019-03-16T04:30:33.166Z,70.20
2019-03-16T04:33:02.885Z,70.00
2019-03-16T04:35:32.606Z,69.90
2019-03-16T04:38:02.305Z,69.90
2019-03-16T04:40:32.110Z,70.00
2019-03-16T04:43:03.010Z,69.90
2019-03-16T04:45:32.851Z,70.10
2019-03-16T04:48:02.550Z,70.30
2019-03-16T04:50:32.348Z,70.30
2019-03-16T04:53:02.148Z,70.40
2019-03-16T04:55:31.872Z,70.10
2019-03-16T04:58:01.580Z,70.10
2019-03-16T05:00:31.277Z,70.10
2019-03-16T05:03:00.978Z,69.90
2019-03-16T05:05:30.672Z,70.10
2019-03-16T05:08:00.388Z,69.40
2019-03-16T05:10:30.108Z,69.60
2019-03-16T05:13:02.292Z,69.20
2019-03-16T05:15:32.571Z,68.80
2019-03-16T05:18:02.288Z,68.40
2019-03-16T05:20:32.008Z,68.50
2019-03-16T05:23:01.704Z,68.60
2019-03-16T05:25:31.428Z,68.60
2019-03-16T05:28:01.160Z,67.60
2019-03-16T05:30:30.944Z,67.50
2019-03-16T05:33:00.676Z,67.20
2019-03-16T05:35:30.382Z,67.00
2019-03-16T05:38:00.168Z,67.10
2019-03-16T05:40:29.906Z,67.00
2019-03-16T05:42:59.963Z,67.00
2019-03-16T05:45:29.696Z,67.00
2019-03-16T05:47:59.415Z,67.20
2019-03-16T05:50:29.132Z,67.40
2019-03-16T05:52:58.864Z,67.60
2019-03-16T05:55:28.575Z,67.80
2019-03-16T05:57:58.350Z,68.10
2019-03-16T06:00:28.056Z,68.10
2019-03-16T06:02:57.803Z,68.00
2019-03-16T06:05:27.501Z,68.40
2019-03-16T06:07:57.203Z,68.30
2019-03-16T06:10:26.904Z,68.20
2019-03-16T06:12:56.628Z,68.10
2019-03-16T06:15:26.348Z,68.60
2019-03-16T06:17:56.061Z,69.10
2019-03-16T06:20:25.784Z,69.00
2019-03-16T06:22:55.564Z,69.30
2019-03-16T06:25:25.372Z,69.60
2019-03-16T06:27:55.073Z,70.20
2019-03-16T06:30:24.963Z,70.30
2019-03-16T06:32:54.684Z,70.70
2019-03-16T06:35:29.167Z,70.40
2019-03-16T06:37:55.936Z,70.90
2019-03-16T06:40:25.644Z,71.10
2019-03-16T06:42:55.393Z,71.00
2019-03-16T06:45:25.126Z,70.70
2019-03-16T06:47:55.033Z,70.90
2019-03-16T06:50:24.880Z,70.80
2019-03-16T06:52:54.692Z,71.00
2019-03-16T06:55:24.486Z,71.40
2019-03-16T06:57:54.264Z,71.70
2019-03-16T07:00:24.037Z,71.80
2019-03-16T07:02:53.821Z,71.80
2019-03-16T07:05:33.234Z,72.20
2019-03-16T07:07:55.105Z,72.30
2019-03-16T07:10:24.808Z,72.70
2019-03-16T07:12:54.622Z,73.10
2019-03-16T07:15:24.463Z,72.90
2019-03-16T07:17:54.181Z,73.40
2019-03-16T07:20:23.856Z,73.10
2019-03-16T07:22:53.565Z,73.30
2019-03-16T07:25:23.338Z,73.40
2019-03-16T07:27:53.048Z,73.50
2019-03-16T07:30:22.775Z,73.60
2019-03-16T07:32:52.476Z,73.60
2019-03-16T07:35:22.171Z,73.70
2019-03-16T07:37:51.928Z,73.30
2019-03-16T07:40:21.626Z,73.50
2019-03-16T07:42:52.296Z,73.90
2019-03-16T07:45:22.060Z,73.90
2019-03-16T07:47:51.780Z,74.10
2019-03-16T07:50:21.490Z,74.10
2019-03-16T07:52:51.181Z,74.20
2019-03-16T07:55:20.936Z,74.20
2019-03-16T07:57:50.637Z,74.40
2019-03-16T08:00:20.402Z,74.30
2019-03-16T08:02:50.175Z,74.50
2019-03-16T08:05:19.860Z,74.70
2019-03-16T08:07:49.553Z,74.70
2019-03-16T08:10:19.335Z,75.00
2019-03-16T08:12:49.017Z,75.20
2019-03-16T08:15:19.792Z,75.40
2019-03-16T08:17:49.515Z,75.50
2019-03-16T08:20:19.284Z,75.80
2019-03-16T08:22:48.981Z,76.20
2019-03-16T08:25:18.765Z,76.50
2019-03-16T08:27:54.217Z,76.50
2019-03-16T08:30:20.008Z,76.50
2019-03-16T08:32:49.720Z,76.60
2019-03-16T08:35:19.492Z,76.70
2019-03-16T08:37:49.273Z,77.00
2019-03-16T08:40:19.067Z,77.10
2019-03-16T08:42:51.363Z,77.30
2019-03-16T08:45:20.228Z,77.30
2019-03-16T08:47:50.071Z,77.40
2019-03-16T08:50:19.832Z,77.60
2019-03-16T08:52:49.573Z,77.90
2019-03-16T08:55:19.360Z,77.80
2019-03-16T08:57:49.048Z,77.90
2019-03-16T09:00:18.842Z,78.00
2019-03-16T09:02:48.535Z,78.10
2019-03-16T09:05:18.240Z,78.20
2019-03-16T09:07:47.926Z,78.50
2019-03-16T09:10:17.641Z,78.70
2019-03-16T09:12:54.949Z,78.90
2019-03-16T09:15:18.889Z,79.10
2019-03-16T09:17:48.592Z,79.20
2019-03-16T09:20:18.283Z,79.50
2019-03-16T09:22:48.144Z,79.60
2019-03-16T09:25:17.827Z,79.80
2019-03-16T09:27:47.586Z,80.10
2019-03-16T09:30:17.412Z,80.30
2019-03-16T09:32:47.190Z,80.40
2019-03-16T09:35:16.974Z,80.50
2019-03-16T09:37:46.685Z,80.70
2019-03-16T09:40:16.452Z,81.00
2019-03-16T09:42:46.154Z,80.90
2019-03-16T09:45:15.996Z,80.80
2019-03-16T09:47:45.710Z,80.70
2019-03-16T09:50:15.546Z,80.80
2019-03-16T09:52:45.245Z,80.60
2019-03-16T09:55:15.028Z,80.50
2019-03-16T09:57:44.812Z,80.40
2019-03-16T10:00:14.687Z,80.40
2019-03-16T10:02:44.382Z,80.00
2019-03-16T10:05:14.231Z,80.00
2019-03-16T10:07:44.884Z,80.00
2019-03-16T10:10:14.747Z,79.70
2019-03-16T10:12:44.516Z,79.60
2019-03-16T10:15:15.645Z,79.50
2019-03-16T10:17:45.439Z,79.40
2019-03-16T10:20:15.324Z,79.30
2019-03-16T10:22:46.343Z,78.90
2019-03-16T10:25:17.124Z,78.90
2019-03-16T10:27:47.336Z,78.70
2019-03-16T10:30:17.176Z,78.50
2019-03-16T10:32:46.928Z,78.30
2019-03-16T10:35:16.648Z,78.20
2019-03-16T10:37:46.528Z,78.10
2019-03-16T10:40:16.376Z,77.90
2019-03-16T10:42:46.205Z,77.90
2019-03-16T10:45:16.051Z,77.90
2019-03-16T10:47:45.829Z,77.90
2019-03-16T10:50:15.708Z,77.90
2019-03-16T10:52:45.488Z,77.90
2019-03-16T10:55:15.192Z,77.80
2019-03-16T10:57:44.907Z,77.80
2019-03-16T11:00:14.671Z,77.80
2019-03-16T11:02:44.579Z,77.60
2019-03-16T11:05:14.427Z,77.50
2019-03-16T11:07:44.142Z,77.30
2019-03-16T11:10:14.114Z,77.40
2019-03-16T11:12:43.820Z,77.60
2019-03-16T11:15:13.561Z,77.60
2019-03-16T11:17:43.285Z,77.60
2019-03-16T11:20:13.092Z,77.50
2019-03-16T11:22:42.985Z,77.60
2019-03-16T11:25:13.716Z,77.60
2019-03-16T11:27:43.568Z,77.40
2019-03-16T11:30:14.426Z,77.30
2019-03-16T11:32:44.240Z,77.50
2019-03-16T11:35:13.958Z,77.40
2019-03-16T11:37:44.734Z,77.10
2019-03-16T11:40:14.817Z,76.70
2019-03-16T11:42:44.697Z,76.50
2019-03-16T11:45:16.884Z,76.40
2019-03-16T11:47:46.035Z,76.00
2019-03-16T11:50:15.836Z,75.70
2019-03-16T11:52:45.632Z,75.20
2019-03-16T11:55:15.452Z,75.10
2019-03-16T11:57:45.253Z,74.80
2019-03-16T12:00:15.307Z,74.60
2019-03-16T12:02:45.229Z,74.60
2019-03-16T12:05:15.892Z,74.20
2019-03-16T12:07:45.592Z,74.30
2019-03-16T12:10:15.496Z,74.00
2019-03-16T12:12:45.303Z,73.80
2019-03-16T12:15:15.450Z,73.70
2019-03-16T12:17:45.223Z,73.50
2019-03-16T12:20:17.819Z,73.70
2019-03-16T12:22:46.644Z,73.40
2019-03-16T12:25:16.351Z,73.50
2019-03-16T12:27:46.144Z,73.50
2019-03-16T12:30:16.959Z,73.20
2019-03-16T12:32:46.688Z,73.10
2019-03-16T12:35:16.463Z,72.90
2019-03-16T12:37:46.190Z,72.70
2019-03-16T12:40:15.990Z,72.60
2019-03-16T12:42:45.722Z,72.60
2019-03-16T12:45:15.575Z,72.70
2019-03-16T12:47:45.351Z,72.70
2019-03-16T12:50:15.165Z,72.60
2019-03-16T12:52:45.093Z,72.50
2019-03-16T12:55:14.960Z,72.80
2019-03-16T12:57:47.611Z,72.90
2019-03-16T13:00:16.231Z,72.70
2019-03-16T13:02:46.071Z,72.20
2019-03-16T13:05:15.857Z,72.20
2019-03-16T13:07:45.632Z,71.90
2019-03-16T13:10:15.409Z,71.60
2019-03-16T13:12:45.306Z,71.70
2019-03-16T13:15:15.107Z,71.40
2019-03-16T13:17:44.850Z,71.10
2019-03-16T13:20:14.656Z,70.70
2019-03-16T13:22:45.477Z,70.80
2019-03-16T13:25:15.325Z,70.60
2019-03-16T13:27:45.102Z,70.30
2019-03-16T13:30:15.064Z,70.40
2019-03-16T13:32:44.807Z,70.20
2019-03-16T13:35:14.608Z,70.00
2019-03-16T13:37:44.379Z,69.80
2019-03-16T13:40:14.264Z,69.90
2019-03-16T13:42:44.914Z,69.60
2019-03-16T13:45:15.072Z,69.40
2019-03-16T13:47:44.786Z,69.50
2019-03-16T13:50:14.719Z,69.20
2019-03-16T13:52:47.939Z,69.10
2019-03-16T13:55:18.770Z,69.00
2019-03-16T13:57:48.547Z,69.00
2019-03-16T14:00:18.827Z,68.90
2019-03-16T14:02:48.604Z,68.90
2019-03-16T14:05:18.397Z,69.10
2019-03-16T14:07:48.248Z,68.70
2019-03-16T14:10:18.291Z,69.10
2019-03-16T14:12:48.076Z,69.30
2019-03-16T14:15:17.994Z,69.30
2019-03-16T14:17:47.784Z,69.10
2019-03-16T14:20:17.858Z,69.40
2019-03-16T14:22:47.652Z,69.20
2019-03-16T14:25:17.361Z,69.20
2019-03-16T14:27:47.149Z,69.60
2019-03-16T14:30:29.450Z,69.60
2019-03-16T14:32:48.419Z,69.80
2019-03-16T14:35:18.237Z,69.70
2019-03-16T14:37:47.950Z,69.60
2019-03-16T14:40:17.904Z,69.60
2019-03-16T14:42:47.711Z,69.80
2019-03-16T14:45:18.124Z,70.00
2019-03-16T14:47:47.912Z,70.00
2019-03-16T14:50:18.181Z,69.90
2019-03-16T14:52:48.028Z,70.00
2019-03-16T14:55:17.824Z,69.90
2019-03-16T14:57:47.524Z,69.50
2019-03-16T15:00:17.397Z,69.50
2019-03-16T15:02:47.312Z,69.50
2019-03-16T15:05:17.084Z,70.30
2019-03-16T15:07:49.544Z,69.50
2019-03-16T15:10:18.872Z,69.20
2019-03-16T15:12:48.839Z,69.20
2019-03-16T15:15:18.732Z,68.80
2019-03-16T15:17:49.029Z,68.90
2019-03-16T15:20:18.903Z,68.70
2019-03-16T15:22:48.635Z,68.70
2019-03-16T15:25:18.374Z,68.70
2019-03-16T15:27:48.184Z,68.20
2019-03-16T15:30:18.080Z,68.10
2019-03-16T15:32:48.120Z,68.30
2019-03-16T15:35:18.016Z,67.80
2019-03-16T15:37:47.774Z,67.80
2019-03-16T15:40:17.833Z,67.40
2019-03-16T15:42:47.616Z,67.20
2019-03-16T15:45:18.483Z,67.40
2019-03-16T15:47:48.209Z,67.20
2019-03-16T15:50:18.248Z,67.20
2019-03-16T15:52:48.306Z,66.80
2019-03-16T15:55:19.584Z,66.40
2019-03-16T15:57:49.396Z,66.30
2019-03-16T16:00:19.808Z,66.50
2019-03-16T16:02:49.898Z,66.40
2019-03-16T16:05:19.794Z,66.40
2019-03-16T16:07:49.653Z,66.20
2019-03-16T16:10:19.652Z,66.20
2019-03-16T16:12:49.648Z,66.10
2019-03-16T16:15:19.532Z,65.90
2019-03-16T16:17:49.452Z,65.80
2019-03-16T16:20:20.288Z,65.50
2019-03-16T16:22:50.256Z,65.50
2019-03-16T16:25:19.961Z,65.10
2019-03-16T16:27:49.675Z,65.70
2019-03-16T16:30:19.737Z,65.20
2019-03-16T16:32:49.592Z,65.40
2019-03-16T16:35:19.433Z,65.30
2019-03-16T16:37:49.274Z,65.40
2019-03-16T16:40:19.114Z,65.30
2019-03-16T16:42:49.089Z,65.30
2019-03-16T16:45:19.002Z,65.50
2019-03-16T16:47:48.722Z,65.40
2019-03-16T16:50:18.431Z,65.50
2019-03-16T16:52:48.632Z,65.60
2019-03-16T16:55:18.385Z,65.80
2019-03-16T16:57:48.249Z,66.80
2019-03-16T17:00:18.023Z,66.20
2019-03-16T17:02:47.755Z,66.10
2019-03-16T17:05:17.623Z,66.30
2019-03-16T17:07:47.339Z,66.30
2019-03-16T17:10:17.185Z,66.30
2019-03-16T17:12:47.004Z,66.30
2019-03-16T17:15:16.906Z,66.40
2019-03-16T17:17:46.684Z,66.50
2019-03-16T17:20:16.585Z,66.40
2019-03-16T17:22:46.452Z,67.50
2019-03-16T17:25:16.299Z,66.70
2019-03-16T17:27:46.005Z,66.80
2019-03-16T17:30:17.401Z,66.80
2019-03-16T17:32:47.184Z,67.10
2019-03-16T17:35:17.077Z,67.00
2019-03-16T17:37:46.793Z,67.80
2019-03-16T17:40:16.693Z,67.00
2019-03-16T17:42:46.661Z,67.00
2019-03-16T17:45:16.708Z,67.00
2019-03-16T17:47:46.601Z,67.00
2019-03-16T17:50:16.571Z,67.10
2019-03-16T17:52:47.591Z,66.80
2019-03-16T17:55:17.555Z,66.70
2019-03-16T17:57:47.341Z,67.00
2019-03-16T18:00:36.335Z,66.80
2019-03-16T18:03:06.336Z,66.60
2019-03-16T18:05:36.412Z,66.90
2019-03-16T18:08:06.254Z,66.70
2019-03-16T18:10:35.987Z,66.90
2019-03-16T18:13:05.660Z,66.80
2019-03-16T18:15:35.665Z,66.80
2019-03-16T18:18:06.729Z,66.80
2019-03-16T18:20:38.068Z,66.80
2019-03-16T18:23:07.912Z,66.90
2019-03-16T18:25:38.032Z,66.80
2019-03-16T18:28:08.032Z,66.80
2019-03-16T18:30:37.818Z,66.80
2019-03-16T18:33:07.633Z,66.80
2019-03-16T18:35:37.342Z,66.90
2019-03-16T18:38:07.132Z,66.40
2019-03-16T18:40:37.140Z,66.60
2019-03-16T18:43:06.852Z,66.60
2019-03-16T18:45:36.628Z,66.60
2019-03-16T18:48:06.444Z,66.70
2019-03-16T18:50:36.364Z,66.40
2019-03-16T18:53:09.181Z,66.50
2019-03-16T18:55:38.968Z,66.50
2019-03-16T18:58:08.932Z,67.20
2019-03-16T19:00:38.950Z,66.60
2019-03-16T19:03:11.515Z,66.30
2019-03-16T19:05:40.297Z,66.50
2019-03-16T19:08:10.394Z,66.20
2019-03-16T19:10:40.336Z,66.10
2019-03-16T19:13:10.608Z,66.10
2019-03-16T19:15:40.475Z,66.20
2019-03-16T19:18:10.353Z,66.10
2019-03-16T19:20:40.160Z,66.10
2019-03-16T19:23:15.314Z,66.20
2019-03-16T19:25:45.143Z,66.20
2019-03-16T19:28:14.820Z,66.20
2019-03-16T19:30:44.549Z,66.40
2019-03-16T19:33:14.248Z,66.40
2019-03-16T19:35:44.503Z,66.40
2019-03-16T19:38:14.224Z,66.40
2019-03-16T19:40:45.940Z,66.50
2019-03-16T19:43:15.644Z,66.40
2019-03-16T19:45:46.201Z,66.40
2019-03-16T19:48:16.273Z,66.30
2019-03-16T19:50:45.998Z,66.50
2019-03-16T19:53:15.774Z,66.50
2019-03-16T19:55:45.472Z,66.40
2019-03-16T19:58:15.246Z,66.60
2019-03-16T20:00:44.952Z,66.50
2019-03-16T20:03:14.768Z,66.50
2019-03-16T20:05:44.560Z,66.70
2019-03-16T20:08:14.273Z,66.60
2019-03-16T20:10:43.967Z,66.60
2019-03-16T20:13:13.683Z,66.80
2019-03-16T20:15:44.000Z,66.70
2019-03-16T20:18:13.940Z,66.90
2019-03-16T20:20:43.665Z,66.80
2019-03-16T20:23:14.192Z,66.70
2019-03-16T20:25:44.108Z,66.80
2019-03-16T20:28:26.044Z,66.90
2019-03-16T20:31:00.707Z,66.70
2019-03-16T20:33:30.411Z,66.90
2019-03-16T20:36:00.189Z,66.90
2019-03-16T20:38:30.084Z,66.90
2019-03-16T20:40:59.792Z,66.80
2019-03-16T20:43:29.577Z,66.70
2019-03-16T20:45:59.364Z,66.80
2019-03-16T20:48:29.067Z,66.80
2019-03-16T20:50:59.860Z,66.90
2019-03-16T20:53:29.556Z,66.80
2019-03-16T20:55:59.321Z,66.80
2019-03-16T20:58:29.054Z,66.70
2019-03-16T21:00:59.001Z,66.70
2019-03-16T21:03:30.644Z,66.60
2019-03-16T21:06:00.460Z,66.40
2019-03-16T21:08:30.220Z,66.70
2019-03-16T21:10:59.908Z,66.70
2019-03-16T21:13:29.716Z,66.80
2019-03-16T21:15:59.463Z,66.60
2019-03-16T21:18:29.252Z,66.60
2019-03-16T21:20:59.076Z,66.60
2019-03-16T21:23:28.860Z,66.60
2019-03-16T21:25:58.569Z,66.60
2019-03-16T21:28:28.290Z,66.50
2019-03-16T21:30:58.399Z,66.50
2019-03-16T21:33:29.717Z,66.60
2019-03-16T21:35:59.856Z,66.60
2019-03-16T21:38:29.559Z,66.60
2019-03-16T21:40:59.409Z,66.40
2019-03-16T21:43:29.252Z,66.70
2019-03-16T21:45:58.961Z,66.70
2019-03-16T21:48:28.696Z,66.70
2019-03-16T21:50:58.437Z,66.70
2019-03-16T21:53:28.155Z,66.70
2019-03-16T21:55:57.941Z,66.60
2019-03-16T21:58:27.686Z,66.60
2019-03-16T22:01:00.195Z,66.70
2019-03-16T22:03:41.624Z,66.70
2019-03-16T22:06:01.777Z,66.80
2019-03-16T22:08:31.492Z,66.60
2019-03-16T22:11:01.336Z,66.70
2019-03-16T22:13:31.148Z,66.70
2019-03-16T22:16:00.951Z,66.70
2019-03-16T22:18:30.664Z,66.70
2019-03-16T22:21:00.432Z,66.90
2019-03-16T22:23:30.144Z,67.70
2019-03-16T22:26:01.399Z,66.90
2019-03-16T22:28:31.396Z,66.90
2019-03-16T22:31:01.220Z,66.90
2019-03-16T22:33:30.941Z,67.20
2019-03-16T22:36:00.728Z,66.80
2019-03-16T22:38:30.438Z,66.90
2019-03-16T22:41:00.221Z,67.00
2019-03-16T22:43:29.929Z,67.00
2019-03-16T22:45:59.710Z,66.90
2019-03-16T22:48:29.476Z,67.00
2019-03-16T22:50:59.215Z,67.00
2019-03-16T22:53:28.991Z,67.10
2019-03-16T22:55:58.788Z,67.00
2019-03-16T22:58:28.484Z,67.20
2019-03-16T23:00:58.279Z,67.30
2019-03-16T23:03:28.196Z,67.20
2019-03-16T23:05:57.916Z,67.30
2019-03-16T23:08:27.616Z,67.20
2019-03-16T23:10:57.837Z,67.70
2019-03-16T23:13:27.528Z,67.30
2019-03-16T23:15:57.244Z,67.20
2019-03-16T23:18:26.970Z,67.30
2019-03-16T23:20:56.690Z,67.40
2019-03-16T23:23:26.460Z,67.60
2019-03-16T23:25:56.254Z,67.50
2019-03-16T23:28:26.196Z,67.50
2019-03-16T23:30:56.005Z,67.50
2019-03-16T23:33:25.827Z,67.50
2019-03-16T23:35:55.672Z,67.50
2019-03-16T23:38:25.453Z,68.30
2019-03-16T23:40:55.160Z,67.60
2019-03-16T23:43:24.965Z,68.50
2019-03-16T23:45:54.676Z,67.60
2019-03-16T23:48:26.565Z,68.50
2019-03-16T23:50:56.372Z,68.10
2019-03-16T23:53:26.161Z,67.70
2019-03-16T23:55:55.893Z,67.60
2019-03-16T23:58:25.680Z,67.60
